Radar AviationWeather DUATS TFRs Wunderground Accuweather Weather.com

alt : Radar

TAFs

KJXN 212340Z 2200/2224 20008KT P6SM VCSH SCT060
   FM220100 VRB03KT P6SM SKC
   FM220900 VRB03KT 5SM BR BKN150
   FM221400 22005KT P6SM SCT040 SCT150
KCLE 212324Z 2200/2306 VRB03KT P6SM FEW250
   FM221700 35009KT P6SM FEW200
   FM230000 03004KT P6SM FEW200
KFDY 212324Z 2200/2224 VRB03KT P6SM FEW200
   FM221100 00000KT 4SM BR SCT200
   FM221300 VRB03KT P6SM SCT200
KTOL 212324Z 2200/2224 VRB03KT P6SM FEW200
   FM221000 00000KT 4SM BR SCT200
   FM221400 VRB03KT P6SM FEW050
KFWA 212320Z 2200/2224 18004KT P6SM FEW250
KDTW 212320Z 2200/2306 16006KT P6SM SCT150 BKN250
   FM220700 14004KT 4SM BR SCT250
   FM221000 VRB03KT 2SM BR FEW002 SCT050
   FM221400 17006KT P6SM FEW050 SCT250
   FM230400 VRB03KT 4SM BR FEW250

METARs

KDUH 220234Z AUTO 10003KT 10SM CLR 24/21 A3008 RMK AO2 T02400205
KJXN 220156Z AUTO 21004KT 10SM CLR 22/18 A3009 RMK AO2 SLP184 T02170178
KFWA 220154Z 00000KT 10SM FEW250 24/21 A3007 RMK AO2 SLP177 T02390206
KDTW 220153Z 13005KT 9SM SCT050 BKN220 24/21 A3009 RMK AO2 SLP184 T02440206
KFDY 220153Z AUTO 12003KT 10SM CLR 26/20 A3007 RMK AO2 SLP171 T02610200 TSNO
KTDZ 220153Z AUTO 10004KT 9SM CLR 24/21 A3007 RMK AO2 SLP179 T02390206
KTOL 220152Z 01010KT 10SM CLR 26/24 A3007 RMK AO2 SLP179 T02560239
KCLE 220151Z 09004KT 10SM FEW250 26/17 A3011 RMK AO2 SLP189 T02560167 $

alt : Satellite

alt : TFRs